首页
METAR-TAF:

METAR-TAF

机场 :

法莱奥洛国际机场

阿皮亚, 乌波卢岛, 萨摩亚

纬度: 13-49S, 经度: 172-00W, 海拔: 5米

当前天气观测

该预报发布于53分钟前的01:00 UTC
风速6节,风向东转东南
温度 30°C
湿度 75%
气压 1010 hPa
能见度10公里或以上
多云层高于2200英尺

METAR: NSFA 220100Z 12006KT 9999 BKN022 30/25 Q1010

时间: 14:53 (01:53 UTC)

预报

该预报发布于2小时和42分钟前的23:11 UTC
预报有效从22日的 00点(UTC)到 22日的 24点(UTC)
风速9节,风向东转东南
能见度10公里或以上
散云层高于2200英尺
几率 30% :
短暂存在
从 22日的 00点(UTC)到 22日的 06点(UTC)
能見度: 7000
多云层高于1600英尺
阵雨,

TAF: NSFA 212311Z 2200/2224 12009KT 9999 SCT022 PROB30 TEMPO 2200/2206 7000 SHRA BKN016

超过4000个机场的气象观测和天气预报(METAR&TAF报告)。

可查询的气象台以黄色和红色小点在地图上表示。

将鼠标移到小点上方,可查看气象台名称。

然后点击查看天气观测和预报。

如需切换地图:点击带黑十字的绿色按钮放大地图;点击带横线的绿色按钮缩小地图;或者点击绿色箭头查看邻近地区的地图。


METAR-TAF: